sensor_id;sensor_type;location;lat;lon;timestamp;temperature;humidity
52203;DHT22;38173;52.850;6.970;2023-11-19T00:00:06;10.20;99.90
52203;DHT22;38173;52.850;6.970;2023-11-19T00:02:40;10.20;99.90
52203;DHT22;38173;52.850;6.970;2023-11-19T00:05:09;10.20;99.90
52203;DHT22;38173;52.850;6.970;2023-11-19T00:07:37;10.20;99.90
52203;DHT22;38173;52.850;6.970;2023-11-19T00:10:16;10.20;99.90
52203;DHT22;38173;52.850;6.970;2023-11-19T00:12:49;10.30;99.90
52203;DHT22;38173;52.850;6.970;2023-11-19T00:15:18;10.30;99.90
52203;DHT22;38173;52.850;6.970;2023-11-19T00:17:50;10.30;99.90
52203;DHT22;38173;52.850;6.970;2023-11-19T00:20:20;10.40;99.90
52203;DHT22;38173;52.850;6.970;2023-11-19T00:22:51;10.40;99.90
52203;DHT22;38173;52.850;6.970;2023-11-19T00:25:18;10.40;99.90
52203;DHT22;38173;52.850;6.970;2023-11-19T00:27:47;10.40;99.90
52203;DHT22;38173;52.850;6.970;2023-11-19T00:30:19;10.40;99.90
52203;DHT22;38173;52.850;6.970;2023-11-19T00:32:45;10.50;99.90
52203;DHT22;38173;52.850;6.970;2023-11-19T00:35:18;10.40;99.90
52203;DHT22;38173;52.850;6.970;2023-11-19T00:37:53;10.50;99.90
52203;DHT22;38173;52.850;6.970;2023-11-19T00:40:19;10.50;99.90
52203;DHT22;38173;52.850;6.970;2023-11-19T00:42:50;10.50;99.90
52203;DHT22;38173;52.850;6.970;2023-11-19T00:45:16;10.50;99.90
52203;DHT22;38173;52.850;6.970;2023-11-19T00:47:44;10.50;99.90
52203;DHT22;38173;52.850;6.970;2023-11-19T00:50:10;10.60;99.90
52203;DHT22;38173;52.850;6.970;2023-11-19T00:52:39;10.50;99.90
52203;DHT22;38173;52.850;6.970;2023-11-19T00:55:08;10.60;99.90
52203;DHT22;38173;52.850;6.970;2023-11-19T00:57:40;10.60;99.90
52203;DHT22;38173;52.850;6.970;2023-11-19T01:00:06;10.60;99.90
52203;DHT22;38173;52.850;6.970;2023-11-19T01:02:53;10.60;99.90
52203;DHT22;38173;52.850;6.970;2023-11-19T01:05:22;10.70;99.90
52203;DHT22;38173;52.850;6.970;2023-11-19T01:07:48;10.70;99.90
52203;DHT22;38173;52.850;6.970;2023-11-19T01:10:21;10.70;99.90
52203;DHT22;38173;52.850;6.970;2023-11-19T01:12:47;10.70;99.90
52203;DHT22;38173;52.850;6.970;2023-11-19T01:15:13;10.80;99.90
52203;DHT22;38173;52.850;6.970;2023-11-19T01:17:43;10.80;99.90
52203;DHT22;38173;52.850;6.970;2023-11-19T01:20:12;10.80;99.90
52203;DHT22;38173;52.850;6.970;2023-11-19T01:22:42;10.80;99.90
52203;DHT22;38173;52.850;6.970;2023-11-19T01:25:10;10.80;99.90
52203;DHT22;38173;52.850;6.970;2023-11-19T01:27:35;10.80;99.90
52203;DHT22;38173;52.850;6.970;2023-11-19T01:30:02;10.80;99.90
52203;DHT22;38173;52.850;6.970;2023-11-19T01:32:31;10.80;99.90
52203;DHT22;38173;52.850;6.970;2023-11-19T01:34:57;10.80;99.90
52203;DHT22;38173;52.850;6.970;2023-11-19T01:37:23;10.80;99.90
52203;DHT22;38173;52.850;6.970;2023-11-19T01:39:49;10.90;99.90
52203;DHT22;38173;52.850;6.970;2023-11-19T01:42:24;10.90;99.90
52203;DHT22;38173;52.850;6.970;2023-11-19T01:45:00;10.90;99.90
52203;DHT22;38173;52.850;6.970;2023-11-19T01:47:30;10.90;99.90
52203;DHT22;38173;52.850;6.970;2023-11-19T01:49:57;10.90;99.90
52203;DHT22;38173;52.850;6.970;2023-11-19T01:52:23;11.00;99.90
52203;DHT22;38173;52.850;6.970;2023-11-19T01:54:50;11.00;99.90
52203;DHT22;38173;52.850;6.970;2023-11-19T01:57:21;10.90;99.90
52203;DHT22;38173;52.850;6.970;2023-11-19T01:59:50;11.00;99.90
52203;DHT22;38173;52.850;6.970;2023-11-19T02:02:18;11.00;99.90
52203;DHT22;38173;52.850;6.970;2023-11-19T02:04:47;11.00;99.90
52203;DHT22;38173;52.850;6.970;2023-11-19T02:07:14;11.00;99.90
52203;DHT22;38173;52.850;6.970;2023-11-19T02:09:43;11.00;99.90
52203;DHT22;38173;52.850;6.970;2023-11-19T02:12:11;11.00;99.90
52203;DHT22;38173;52.850;6.970;2023-11-19T02:14:40;11.00;99.90
52203;DHT22;38173;52.850;6.970;2023-11-19T02:17:06;11.00;99.90
52203;DHT22;38173;52.850;6.970;2023-11-19T02:19:32;11.00;99.90
52203;DHT22;38173;52.850;6.970;2023-11-19T02:22:00;11.00;99.90
52203;DHT22;38173;52.850;6.970;2023-11-19T02:24:29;11.00;99.90
52203;DHT22;38173;52.850;6.970;2023-11-19T02:27:02;11.00;99.90
52203;DHT22;38173;52.850;6.970;2023-11-19T02:29:31;11.00;99.90
52203;DHT22;38173;52.850;6.970;2023-11-19T02:31:57;11.00;99.90
52203;DHT22;38173;52.850;6.970;2023-11-19T02:34:23;11.00;99.90
52203;DHT22;38173;52.850;6.970;2023-11-19T02:36:51;11.00;99.90
52203;DHT22;38173;52.850;6.970;2023-11-19T02:39:19;11.00;99.90
52203;DHT22;38173;52.850;6.970;2023-11-19T02:41:49;11.00;99.90
52203;DHT22;38173;52.850;6.970;2023-11-19T02:44:17;11.00;99.90
52203;DHT22;38173;52.850;6.970;2023-11-19T02:46:43;11.00;99.90
52203;DHT22;38173;52.850;6.970;2023-11-19T02:49:09;11.00;99.90
52203;DHT22;38173;52.850;6.970;2023-11-19T02:51:34;11.10;99.90
52203;DHT22;38173;52.850;6.970;2023-11-19T02:54:01;11.10;99.90
52203;DHT22;38173;52.850;6.970;2023-11-19T02:56:29;11.10;99.90
52203;DHT22;38173;52.850;6.970;2023-11-19T02:59:06;11.10;99.90
52203;DHT22;38173;52.850;6.970;2023-11-19T03:01:52;11.20;99.90
52203;DHT22;38173;52.850;6.970;2023-11-19T03:04:17;11.20;99.90
52203;DHT22;38173;52.850;6.970;2023-11-19T03:06:48;11.20;99.90
52203;DHT22;38173;52.850;6.970;2023-11-19T03:09:14;11.20;99.90
52203;DHT22;38173;52.850;6.970;2023-11-19T03:11:42;11.20;99.90
52203;DHT22;38173;52.850;6.970;2023-11-19T03:14:08;11.20;99.90
52203;DHT22;38173;52.850;6.970;2023-11-19T03:16:34;11.20;99.90
52203;DHT22;38173;52.850;6.970;2023-11-19T03:18:59;11.20;99.90
52203;DHT22;38173;52.850;6.970;2023-11-19T03:21:29;11.20;99.90
52203;DHT22;38173;52.850;6.970;2023-11-19T03:23:58;11.30;99.90
52203;DHT22;38173;52.850;6.970;2023-11-19T03:26:30;11.40;99.90
52203;DHT22;38173;52.850;6.970;2023-11-19T03:28:59;11.40;99.90
52203;DHT22;38173;52.850;6.970;2023-11-19T03:31:30;11.50;99.90
52203;DHT22;38173;52.850;6.970;2023-11-19T03:33:58;11.60;99.90
52203;DHT22;38173;52.850;6.970;2023-11-19T03:36:24;11.60;99.90
52203;DHT22;38173;52.850;6.970;2023-11-19T03:38:49;11.70;99.90
52203;DHT22;38173;52.850;6.970;2023-11-19T03:41:18;11.70;99.90
52203;DHT22;38173;52.850;6.970;2023-11-19T03:43:45;11.70;99.90
52203;DHT22;38173;52.850;6.970;2023-11-19T03:46:20;11.70;99.90
52203;DHT22;38173;52.850;6.970;2023-11-19T03:48:50;11.70;99.90
52203;DHT22;38173;52.850;6.970;2023-11-19T03:51:16;11.70;99.90
52203;DHT22;38173;52.850;6.970;2023-11-19T03:53:45;11.70;99.90
52203;DHT22;38173;52.850;6.970;2023-11-19T03:56:11;11.70;99.90
52203;DHT22;38173;52.850;6.970;2023-11-19T03:58:38;11.70;99.90
52203;DHT22;38173;52.850;6.970;2023-11-19T04:01:11;11.70;99.90
52203;DHT22;38173;52.850;6.970;2023-11-19T04:03:41;11.70;99.90
52203;DHT22;38173;52.850;6.970;2023-11-19T04:06:09;11.70;99.90
52203;DHT22;38173;52.850;6.970;2023-11-19T04:08:35;11.70;99.90
52203;DHT22;38173;52.850;6.970;2023-11-19T04:11:03;11.70;99.90
52203;DHT22;38173;52.850;6.970;2023-11-19T04:13:31;11.70;99.90
52203;DHT22;38173;52.850;6.970;2023-11-19T04:15:57;11.70;99.90
52203;DHT22;38173;52.850;6.970;2023-11-19T04:18:23;11.70;99.90
52203;DHT22;38173;52.850;6.970;2023-11-19T04:20:49;11.70;99.90
52203;DHT22;38173;52.850;6.970;2023-11-19T04:23:16;11.70;99.90
52203;DHT22;38173;52.850;6.970;2023-11-19T04:25:45;11.70;99.90
52203;DHT22;38173;52.850;6.970;2023-11-19T04:28:18;11.70;99.90
52203;DHT22;38173;52.850;6.970;2023-11-19T04:30:47;11.70;99.90
52203;DHT22;38173;52.850;6.970;2023-11-19T04:33:15;11.70;99.90
52203;DHT22;38173;52.850;6.970;2023-11-19T04:35:41;11.70;99.90
52203;DHT22;38173;52.850;6.970;2023-11-19T04:38:09;11.70;99.90
52203;DHT22;38173;52.850;6.970;2023-11-19T04:40:40;11.60;99.90
52203;DHT22;38173;52.850;6.970;2023-11-19T04:43:07;11.70;99.90
52203;DHT22;38173;52.850;6.970;2023-11-19T04:45:35;11.60;99.90
52203;DHT22;38173;52.850;6.970;2023-11-19T04:48:02;11.70;99.90
52203;DHT22;38173;52.850;6.970;2023-11-19T04:50:28;11.70;99.90
52203;DHT22;38173;52.850;6.970;2023-11-19T04:52:54;11.70;99.90
52203;DHT22;38173;52.850;6.970;2023-11-19T04:55:21;11.70;99.90
52203;DHT22;38173;52.850;6.970;2023-11-19T04:57:50;11.80;99.90
52203;DHT22;38173;52.850;6.970;2023-11-19T05:00:16;11.80;99.90
52203;DHT22;38173;52.850;6.970;2023-11-19T05:02:43;11.90;99.90
52203;DHT22;38173;52.850;6.970;2023-11-19T05:05:11;11.90;99.90
52203;DHT22;38173;52.850;6.970;2023-11-19T05:07:40;11.90;99.90
52203;DHT22;38173;52.850;6.970;2023-11-19T05:10:06;11.90;99.90
52203;DHT22;38173;52.850;6.970;2023-11-19T05:12:32;11.80;99.90
52203;DHT22;38173;52.850;6.970;2023-11-19T05:14:58;11.80;99.90
52203;DHT22;38173;52.850;6.970;2023-11-19T05:17:27;11.80;99.90
52203;DHT22;38173;52.850;6.970;2023-11-19T05:19:58;11.80;99.90
52203;DHT22;38173;52.850;6.970;2023-11-19T05:22:24;11.70;99.90
52203;DHT22;38173;52.850;6.970;2023-11-19T05:24:51;11.70;99.90
52203;DHT22;38173;52.850;6.970;2023-11-19T05:27:17;11.70;99.90
52203;DHT22;38173;52.850;6.970;2023-11-19T05:29:45;11.60;99.90
52203;DHT22;38173;52.850;6.970;2023-11-19T05:32:22;11.60;99.90
52203;DHT22;38173;52.850;6.970;2023-11-19T05:34:56;11.60;99.90
52203;DHT22;38173;52.850;6.970;2023-11-19T05:37:40;11.60;99.90
52203;DHT22;38173;52.850;6.970;2023-11-19T05:40:15;11.60;99.90
52203;DHT22;38173;52.850;6.970;2023-11-19T05:42:43;11.60;99.90
52203;DHT22;38173;52.850;6.970;2023-11-19T05:45:19;11.60;99.90
52203;DHT22;38173;52.850;6.970;2023-11-19T05:47:45;11.60;99.90
52203;DHT22;38173;52.850;6.970;2023-11-19T05:50:16;11.60;99.90
52203;DHT22;38173;52.850;6.970;2023-11-19T05:52:42;11.60;99.90
52203;DHT22;38173;52.850;6.970;2023-11-19T05:55:13;11.50;99.90
52203;DHT22;38173;52.850;6.970;2023-11-19T05:57:43;11.60;99.90
52203;DHT22;38173;52.850;6.970;2023-11-19T06:00:12;11.60;99.90
52203;DHT22;38173;52.850;6.970;2023-11-19T06:02:52;11.60;99.90
52203;DHT22;38173;52.850;6.970;2023-11-19T06:05:29;11.60;99.90
52203;DHT22;38173;52.850;6.970;2023-11-19T06:08:12;11.60;99.90
52203;DHT22;38173;52.850;6.970;2023-11-19T06:10:41;11.60;99.90
52203;DHT22;38173;52.850;6.970;2023-11-19T06:13:10;11.60;99.90
52203;DHT22;38173;52.850;6.970;2023-11-19T06:15:37;11.50;99.90
52203;DHT22;38173;52.850;6.970;2023-11-19T06:18:07;11.50;99.90
52203;DHT22;38173;52.850;6.970;2023-11-19T06:20:38;11.50;99.90
52203;DHT22;38173;52.850;6.970;2023-11-19T06:23:07;11.50;99.90
52203;DHT22;38173;52.850;6.970;2023-11-19T06:25:32;11.50;99.90
52203;DHT22;38173;52.850;6.970;2023-11-19T06:28:03;11.50;99.90
52203;DHT22;38173;52.850;6.970;2023-11-19T06:30:32;11.50;99.90
52203;DHT22;38173;52.850;6.970;2023-11-19T06:32:58;11.50;99.90
52203;DHT22;38173;52.850;6.970;2023-11-19T06:35:25;11.50;99.90
52203;DHT22;38173;52.850;6.970;2023-11-19T06:37:51;11.50;99.90
52203;DHT22;38173;52.850;6.970;2023-11-19T06:40:16;11.50;99.90
52203;DHT22;38173;52.850;6.970;2023-11-19T06:42:45;11.50;99.90
52203;DHT22;38173;52.850;6.970;2023-11-19T06:45:12;11.50;99.90
52203;DHT22;38173;52.850;6.970;2023-11-19T06:47:38;11.50;99.90
52203;DHT22;38173;52.850;6.970;2023-11-19T06:50:04;11.50;99.90
52203;DHT22;38173;52.850;6.970;2023-11-19T06:52:33;11.40;99.90
52203;DHT22;38173;52.850;6.970;2023-11-19T06:54:59;11.40;99.90
52203;DHT22;38173;52.850;6.970;2023-11-19T06:57:25;11.40;99.90
52203;DHT22;38173;52.850;6.970;2023-11-19T06:59:51;11.40;99.90
52203;DHT22;38173;52.850;6.970;2023-11-19T07:02:19;11.40;99.90
52203;DHT22;38173;52.850;6.970;2023-11-19T07:04:54;11.40;99.90
52203;DHT22;38173;52.850;6.970;2023-11-19T07:07:20;11.40;99.90
52203;DHT22;38173;52.850;6.970;2023-11-19T07:09:48;11.40;99.90
52203;DHT22;38173;52.850;6.970;2023-11-19T07:12:16;11.40;99.90
52203;DHT22;38173;52.850;6.970;2023-11-19T07:14:45;11.40;99.90
52203;DHT22;38173;52.850;6.970;2023-11-19T07:17:12;11.40;99.90
52203;DHT22;38173;52.850;6.970;2023-11-19T07:19:38;11.30;99.90
52203;DHT22;38173;52.850;6.970;2023-11-19T07:22:05;11.30;99.90
52203;DHT22;38173;52.850;6.970;2023-11-19T07:24:31;11.30;99.90
52203;DHT22;38173;52.850;6.970;2023-11-19T07:26:57;11.30;99.90
52203;DHT22;38173;52.850;6.970;2023-11-19T07:29:25;11.30;99.90
52203;DHT22;38173;52.850;6.970;2023-11-19T07:31:51;11.30;99.90
52203;DHT22;38173;52.850;6.970;2023-11-19T07:34:20;11.30;99.90
52203;DHT22;38173;52.850;6.970;2023-11-19T07:36:46;11.30;99.90
52203;DHT22;38173;52.850;6.970;2023-11-19T07:39:35;11.20;99.90
52203;DHT22;38173;52.850;6.970;2023-11-19T07:42:03;11.20;99.90
52203;DHT22;38173;52.850;6.970;2023-11-19T07:44:32;11.20;99.90
52203;DHT22;38173;52.850;6.970;2023-11-19T07:46:58;11.30;99.90
52203;DHT22;38173;52.850;6.970;2023-11-19T07:49:24;11.20;99.90
52203;DHT22;38173;52.850;6.970;2023-11-19T07:51:57;11.20;99.90
52203;DHT22;38173;52.850;6.970;2023-11-19T07:54:28;11.20;99.90
52203;DHT22;38173;52.850;6.970;2023-11-19T07:56:57;11.20;99.90
52203;DHT22;38173;52.850;6.970;2023-11-19T07:59:23;11.20;99.90
52203;DHT22;38173;52.850;6.970;2023-11-19T08:01:48;11.10;99.90
52203;DHT22;38173;52.850;6.970;2023-11-19T08:04:14;11.20;99.90
52203;DHT22;38173;52.850;6.970;2023-11-19T08:06:40;11.20;99.90
52203;DHT22;38173;52.850;6.970;2023-11-19T08:09:09;11.20;99.90
52203;DHT22;38173;52.850;6.970;2023-11-19T08:11:44;11.20;99.90
52203;DHT22;38173;52.850;6.970;2023-11-19T08:14:12;11.20;99.90
52203;DHT22;38173;52.850;6.970;2023-11-19T08:16:46;11.20;99.90
52203;DHT22;38173;52.850;6.970;2023-11-19T08:19:12;11.20;99.90
52203;DHT22;38173;52.850;6.970;2023-11-19T08:21:38;11.20;99.90
52203;DHT22;38173;52.850;6.970;2023-11-19T08:24:04;11.20;99.90
52203;DHT22;38173;52.850;6.970;2023-11-19T08:26:45;11.20;99.90
52203;DHT22;38173;52.850;6.970;2023-11-19T08:29:11;11.20;99.90
52203;DHT22;38173;52.850;6.970;2023-11-19T08:31:39;11.20;99.90
52203;DHT22;38173;52.850;6.970;2023-11-19T08:34:06;11.20;99.90
52203;DHT22;38173;52.850;6.970;2023-11-19T08:36:39;11.20;99.90
52203;DHT22;38173;52.850;6.970;2023-11-19T08:39:10;11.20;99.90
52203;DHT22;38173;52.850;6.970;2023-11-19T08:41:39;11.30;99.90
52203;DHT22;38173;52.850;6.970;2023-11-19T08:44:10;11.20;99.90
52203;DHT22;38173;52.850;6.970;2023-11-19T08:46:38;11.20;99.90
52203;DHT22;38173;52.850;6.970;2023-11-19T08:49:05;11.10;99.90
52203;DHT22;38173;52.850;6.970;2023-11-19T08:51:33;11.10;99.90
52203;DHT22;38173;52.850;6.970;2023-11-19T08:53:59;11.10;99.90
52203;DHT22;38173;52.850;6.970;2023-11-19T08:56:28;11.00;99.90
52203;DHT22;38173;52.850;6.970;2023-11-19T08:59:02;11.00;99.90
52203;DHT22;38173;52.850;6.970;2023-11-19T09:01:30;11.00;99.90
52203;DHT22;38173;52.850;6.970;2023-11-19T09:03:56;10.90;99.90
52203;DHT22;38173;52.850;6.970;2023-11-19T09:06:23;11.00;99.90
52203;DHT22;38173;52.850;6.970;2023-11-19T09:08:49;10.90;99.90
52203;DHT22;38173;52.850;6.970;2023-11-19T09:11:14;10.90;99.90
52203;DHT22;38173;52.850;6.970;2023-11-19T09:13:40;10.90;99.90
52203;DHT22;38173;52.850;6.970;2023-11-19T09:16:06;10.90;99.90
52203;DHT22;38173;52.850;6.970;2023-11-19T09:18:32;10.90;99.90
52203;DHT22;38173;52.850;6.970;2023-11-19T09:20:58;10.90;99.90
52203;DHT22;38173;52.850;6.970;2023-11-19T09:23:24;10.90;99.90
52203;DHT22;38173;52.850;6.970;2023-11-19T09:25:58;10.80;99.90
52203;DHT22;38173;52.850;6.970;2023-11-19T09:28:28;10.90;99.90
52203;DHT22;38173;52.850;6.970;2023-11-19T09:30:54;10.90;99.90
52203;DHT22;38173;52.850;6.970;2023-11-19T09:33:20;10.90;99.90
52203;DHT22;38173;52.850;6.970;2023-11-19T09:35:46;10.90;99.90
52203;DHT22;38173;52.850;6.970;2023-11-19T09:38:11;10.90;99.90
52203;DHT22;38173;52.850;6.970;2023-11-19T09:40:38;11.00;99.90
52203;DHT22;38173;52.850;6.970;2023-11-19T09:43:04;11.00;99.90
52203;DHT22;38173;52.850;6.970;2023-11-19T09:48:18;11.10;99.90
52203;DHT22;38173;52.850;6.970;2023-11-19T09:50:47;11.10;99.90
52203;DHT22;38173;52.850;6.970;2023-11-19T09:53:21;11.10;99.90
52203;DHT22;38173;52.850;6.970;2023-11-19T09:55:48;11.20;99.90
52203;DHT22;38173;52.850;6.970;2023-11-19T09:58:17;11.10;99.90
52203;DHT22;38173;52.850;6.970;2023-11-19T10:00:44;11.20;99.90
52203;DHT22;38173;52.850;6.970;2023-11-19T10:03:14;11.20;99.90
52203;DHT22;38173;52.850;6.970;2023-11-19T10:05:44;11.20;99.90
52203;DHT22;38173;52.850;6.970;2023-11-19T10:08:13;11.30;99.90
52203;DHT22;38173;52.850;6.970;2023-11-19T10:10:39;11.30;99.90
52203;DHT22;38173;52.850;6.970;2023-11-19T10:13:05;11.40;99.90
52203;DHT22;38173;52.850;6.970;2023-11-19T10:15:36;11.40;99.90
52203;DHT22;38173;52.850;6.970;2023-11-19T10:18:03;11.40;99.90
52203;DHT22;38173;52.850;6.970;2023-11-19T10:20:40;11.40;99.90
52203;DHT22;38173;52.850;6.970;2023-11-19T10:23:06;11.40;99.90
52203;DHT22;38173;52.850;6.970;2023-11-19T10:25:35;11.40;99.90
52203;DHT22;38173;52.850;6.970;2023-11-19T10:28:01;11.40;99.90
52203;DHT22;38173;52.850;6.970;2023-11-19T10:30:28;11.40;99.90
52203;DHT22;38173;52.850;6.970;2023-11-19T10:33:13;11.30;99.90
52203;DHT22;38173;52.850;6.970;2023-11-19T10:35:53;11.20;99.90
52203;DHT22;38173;52.850;6.970;2023-11-19T10:38:20;11.20;99.90
52203;DHT22;38173;52.850;6.970;2023-11-19T10:40:52;11.10;99.90
52203;DHT22;38173;52.850;6.970;2023-11-19T10:43:19;11.10;99.90
52203;DHT22;38173;52.850;6.970;2023-11-19T10:45:47;11.10;99.90
52203;DHT22;38173;52.850;6.970;2023-11-19T10:48:14;11.10;99.90
52203;DHT22;38173;52.850;6.970;2023-11-19T10:50:41;11.10;99.90
52203;DHT22;38173;52.850;6.970;2023-11-19T10:53:09;11.10;99.90
52203;DHT22;38173;52.850;6.970;2023-11-19T10:55:40;11.10;99.90
52203;DHT22;38173;52.850;6.970;2023-11-19T10:58:09;11.10;99.90
52203;DHT22;38173;52.850;6.970;2023-11-19T11:00:43;11.10;99.90
52203;DHT22;38173;52.850;6.970;2023-11-19T11:03:21;11.10;99.90
52203;DHT22;38173;52.850;6.970;2023-11-19T11:05:49;11.10;99.90
52203;DHT22;38173;52.850;6.970;2023-11-19T11:08:16;11.10;99.90
52203;DHT22;38173;52.850;6.970;2023-11-19T11:10:57;11.10;99.90
52203;DHT22;38173;52.850;6.970;2023-11-19T11:13:26;11.10;99.90
52203;DHT22;38173;52.850;6.970;2023-11-19T11:15:58;11.10;99.90
52203;DHT22;38173;52.850;6.970;2023-11-19T11:18:27;11.10;99.90
52203;DHT22;38173;52.850;6.970;2023-11-19T11:21:04;11.10;99.90
52203;DHT22;38173;52.850;6.970;2023-11-19T11:27:50;11.10;99.90
52203;DHT22;38173;52.850;6.970;2023-11-19T11:32:43;11.20;99.90
52203;DHT22;38173;52.850;6.970;2023-11-19T11:38:08;11.20;99.90
52203;DHT22;38173;52.850;6.970;2023-11-19T11:40:34;11.20;99.90
52203;DHT22;38173;52.850;6.970;2023-11-19T11:43:03;11.20;99.90
52203;DHT22;38173;52.850;6.970;2023-11-19T11:45:39;11.20;99.90
52203;DHT22;38173;52.850;6.970;2023-11-19T11:48:09;11.10;99.90
52203;DHT22;38173;52.850;6.970;2023-11-19T11:50:47;11.10;99.90
52203;DHT22;38173;52.850;6.970;2023-11-19T11:53:16;11.10;99.90
52203;DHT22;38173;52.850;6.970;2023-11-19T11:58:26;11.10;99.90
52203;DHT22;38173;52.850;6.970;2023-11-19T12:00:57;11.10;99.90
52203;DHT22;38173;52.850;6.970;2023-11-19T12:03:27;11.20;99.90
52203;DHT22;38173;52.850;6.970;2023-11-19T12:05:55;11.10;99.90
52203;DHT22;38173;52.850;6.970;2023-11-19T12:08:28;11.20;99.90
52203;DHT22;38173;52.850;6.970;2023-11-19T12:11:03;11.20;99.90
52203;DHT22;38173;52.850;6.970;2023-11-19T12:13:58;11.20;99.90
52203;DHT22;38173;52.850;6.970;2023-11-19T12:16:33;11.30;99.90
52203;DHT22;38173;52.850;6.970;2023-11-19T12:19:04;11.20;99.90
52203;DHT22;38173;52.850;6.970;2023-11-19T12:21:33;11.20;99.90
52203;DHT22;38173;52.850;6.970;2023-11-19T12:24:03;11.20;99.90
52203;DHT22;38173;52.850;6.970;2023-11-19T12:26:39;11.20;99.90
52203;DHT22;38173;52.850;6.970;2023-11-19T12:29:12;11.30;99.90
52203;DHT22;38173;52.850;6.970;2023-11-19T12:31:38;11.30;99.90
52203;DHT22;38173;52.850;6.970;2023-11-19T12:34:11;11.30;99.90
52203;DHT22;38173;52.850;6.970;2023-11-19T12:36:38;11.20;99.90
52203;DHT22;38173;52.850;6.970;2023-11-19T12:39:03;11.20;99.90
52203;DHT22;38173;52.850;6.970;2023-11-19T12:41:29;11.10;99.90
52203;DHT22;38173;52.850;6.970;2023-11-19T12:44:09;11.00;99.90
52203;DHT22;38173;52.850;6.970;2023-11-19T12:46:35;10.90;99.90
52203;DHT22;38173;52.850;6.970;2023-11-19T12:49:08;10.80;99.90
52203;DHT22;38173;52.850;6.970;2023-11-19T12:51:36;10.80;99.90
52203;DHT22;38173;52.850;6.970;2023-11-19T12:54:02;10.70;99.90
52203;DHT22;38173;52.850;6.970;2023-11-19T12:56:30;10.70;99.90
52203;DHT22;38173;52.850;6.970;2023-11-19T12:59:10;10.70;99.90
52203;DHT22;38173;52.850;6.970;2023-11-19T13:01:37;10.70;99.90
52203;DHT22;38173;52.850;6.970;2023-11-19T13:04:16;10.70;99.90
52203;DHT22;38173;52.850;6.970;2023-11-19T13:06:46;10.70;99.90
52203;DHT22;38173;52.850;6.970;2023-11-19T13:09:27;10.60;99.90
52203;DHT22;38173;52.850;6.970;2023-11-19T13:11:55;10.60;99.90
52203;DHT22;38173;52.850;6.970;2023-11-19T13:14:22;10.60;99.90
52203;DHT22;38173;52.850;6.970;2023-11-19T13:16:49;10.60;99.90
52203;DHT22;38173;52.850;6.970;2023-11-19T13:19:22;10.60;99.90
52203;DHT22;38173;52.850;6.970;2023-11-19T13:21:49;10.60;99.90
52203;DHT22;38173;52.850;6.970;2023-11-19T13:24:19;10.70;99.90
52203;DHT22;38173;52.850;6.970;2023-11-19T13:26:45;10.70;99.90
52203;DHT22;38173;52.850;6.970;2023-11-19T13:29:11;10.70;99.90
52203;DHT22;38173;52.850;6.970;2023-11-19T13:31:37;10.80;99.90
52203;DHT22;38173;52.850;6.970;2023-11-19T13:34:04;10.90;99.90
52203;DHT22;38173;52.850;6.970;2023-11-19T13:36:32;10.90;99.90
52203;DHT22;38173;52.850;6.970;2023-11-19T13:39:02;11.00;99.90
52203;DHT22;38173;52.850;6.970;2023-11-19T13:41:28;11.00;99.90
52203;DHT22;38173;52.850;6.970;2023-11-19T13:43:53;11.00;99.90
52203;DHT22;38173;52.850;6.970;2023-11-19T13:46:20;11.00;99.90
52203;DHT22;38173;52.850;6.970;2023-11-19T13:48:46;11.10;99.90
52203;DHT22;38173;52.850;6.970;2023-11-19T13:51:14;11.10;99.90
52203;DHT22;38173;52.850;6.970;2023-11-19T13:53:42;11.10;99.90
52203;DHT22;38173;52.850;6.970;2023-11-19T13:56:11;11.10;99.90
52203;DHT22;38173;52.850;6.970;2023-11-19T13:58:40;11.10;99.90
52203;DHT22;38173;52.850;6.970;2023-11-19T14:01:06;11.10;99.90
52203;DHT22;38173;52.850;6.970;2023-11-19T14:03:34;11.10;99.90
52203;DHT22;38173;52.850;6.970;2023-11-19T14:06:00;11.10;99.90
52203;DHT22;38173;52.850;6.970;2023-11-19T14:08:29;11.20;99.90
52203;DHT22;38173;52.850;6.970;2023-11-19T14:10:55;11.10;99.90
52203;DHT22;38173;52.850;6.970;2023-11-19T14:13:22;11.10;99.90
52203;DHT22;38173;52.850;6.970;2023-11-19T14:15:49;11.10;99.90
52203;DHT22;38173;52.850;6.970;2023-11-19T14:18:21;11.10;99.90
52203;DHT22;38173;52.850;6.970;2023-11-19T14:20:47;11.20;99.90
52203;DHT22;38173;52.850;6.970;2023-11-19T14:23:13;11.10;99.90
52203;DHT22;38173;52.850;6.970;2023-11-19T14:25:39;11.10;99.90
52203;DHT22;38173;52.850;6.970;2023-11-19T14:28:05;11.10;99.90
52203;DHT22;38173;52.850;6.970;2023-11-19T14:30:33;11.10;99.90
52203;DHT22;38173;52.850;6.970;2023-11-19T14:33:00;11.00;99.90
52203;DHT22;38173;52.850;6.970;2023-11-19T14:35:25;11.00;99.90
52203;DHT22;38173;52.850;6.970;2023-11-19T14:37:51;11.00;99.90
52203;DHT22;38173;52.850;6.970;2023-11-19T14:40:17;11.00;99.90
52203;DHT22;38173;52.850;6.970;2023-11-19T14:42:45;10.90;99.90
52203;DHT22;38173;52.850;6.970;2023-11-19T14:45:14;10.90;99.90
52203;DHT22;38173;52.850;6.970;2023-11-19T14:47:40;10.80;99.90
52203;DHT22;38173;52.850;6.970;2023-11-19T14:50:06;10.80;99.90
52203;DHT22;38173;52.850;6.970;2023-11-19T14:52:32;10.70;99.90
52203;DHT22;38173;52.850;6.970;2023-11-19T14:55:00;10.70;99.90
52203;DHT22;38173;52.850;6.970;2023-11-19T14:57:27;10.60;99.90
52203;DHT22;38173;52.850;6.970;2023-11-19T14:59:56;10.60;99.90
52203;DHT22;38173;52.850;6.970;2023-11-19T15:02:22;10.60;99.90
52203;DHT22;38173;52.850;6.970;2023-11-19T15:04:47;10.50;99.90
52203;DHT22;38173;52.850;6.970;2023-11-19T15:07:13;10.50;99.90
52203;DHT22;38173;52.850;6.970;2023-11-19T15:09:41;10.50;99.90
52203;DHT22;38173;52.850;6.970;2023-11-19T15:12:07;10.50;99.90
52203;DHT22;38173;52.850;6.970;2023-11-19T15:14:33;10.50;99.90
52203;DHT22;38173;52.850;6.970;2023-11-19T15:16:59;10.50;99.90
52203;DHT22;38173;52.850;6.970;2023-11-19T15:19:24;10.40;99.90
52203;DHT22;38173;52.850;6.970;2023-11-19T15:21:55;10.40;99.90
52203;DHT22;38173;52.850;6.970;2023-11-19T15:24:20;10.40;99.90
52203;DHT22;38173;52.850;6.970;2023-11-19T15:26:49;10.40;99.90
52203;DHT22;38173;52.850;6.970;2023-11-19T15:29:18;10.40;99.90
52203;DHT22;38173;52.850;6.970;2023-11-19T15:31:44;10.40;99.90
52203;DHT22;38173;52.850;6.970;2023-11-19T15:34:09;10.50;99.90
52203;DHT22;38173;52.850;6.970;2023-11-19T15:36:45;10.40;99.90
52203;DHT22;38173;52.850;6.970;2023-11-19T15:39:12;10.40;99.90
52203;DHT22;38173;52.850;6.970;2023-11-19T15:41:39;10.50;99.90
52203;DHT22;38173;52.850;6.970;2023-11-19T15:44:05;10.40;99.90
52203;DHT22;38173;52.850;6.970;2023-11-19T15:46:31;10.40;99.90
52203;DHT22;38173;52.850;6.970;2023-11-19T15:48:57;10.40;99.90
52203;DHT22;38173;52.850;6.970;2023-11-19T15:51:23;10.40;99.90
52203;DHT22;38173;52.850;6.970;2023-11-19T15:53:49;10.40;99.90